sensor_id;sensor_type;location;lat;lon;timestamp;P1;durP1;ratioP1;P2;durP2;ratioP2
82671;SDS011;72378;52.468;13.432;2024-02-26T00:01:27;15.52;;;7.93;;
82671;SDS011;72378;52.468;13.432;2024-02-26T00:03:53;13.48;;;7.57;;
82671;SDS011;72378;52.468;13.432;2024-02-26T00:06:24;14.02;;;7.60;;
82671;SDS011;72378;52.468;13.432;2024-02-26T00:08:50;14.77;;;7.88;;
82671;SDS011;72378;52.468;13.432;2024-02-26T00:11:17;15.98;;;7.53;;
82671;SDS011;72378;52.468;13.432;2024-02-26T00:13:43;13.75;;;7.57;;
82671;SDS011;72378;52.468;13.432;2024-02-26T00:16:09;15.52;;;7.97;;
82671;SDS011;72378;52.468;13.432;2024-02-26T00:18:37;14.07;;;7.75;;
82671;SDS011;72378;52.468;13.432;2024-02-26T00:21:03;16.38;;;7.78;;
82671;SDS011;72378;52.468;13.432;2024-02-26T00:23:30;13.30;;;7.20;;
82671;SDS011;72378;52.468;13.432;2024-02-26T00:25:57;15.10;;;7.50;;
82671;SDS011;72378;52.468;13.432;2024-02-26T00:28:23;12.45;;;6.47;;
82671;SDS011;72378;52.468;13.432;2024-02-26T00:30:50;13.23;;;6.88;;
82671;SDS011;72378;52.468;13.432;2024-02-26T00:33:20;11.05;;;6.35;;
82671;SDS011;72378;52.468;13.432;2024-02-26T00:35:48;13.73;;;6.85;;
82671;SDS011;72378;52.468;13.432;2024-02-26T00:38:15;11.40;;;5.95;;
82671;SDS011;72378;52.468;13.432;2024-02-26T00:40:41;10.65;;;6.90;;
82671;SDS011;72378;52.468;13.432;2024-02-26T00:43:08;11.15;;;6.68;;
82671;SDS011;72378;52.468;13.432;2024-02-26T00:45:34;11.65;;;6.53;;
82671;SDS011;72378;52.468;13.432;2024-02-26T00:48:00;13.55;;;6.80;;
82671;SDS011;72378;52.468;13.432;2024-02-26T00:50:30;11.48;;;6.82;;
82671;SDS011;72378;52.468;13.432;2024-02-26T00:52:57;13.02;;;6.65;;
82671;SDS011;72378;52.468;13.432;2024-02-26T00:55:24;11.02;;;6.47;;
82671;SDS011;72378;52.468;13.432;2024-02-26T00:57:50;13.38;;;6.65;;
82671;SDS011;72378;52.468;13.432;2024-02-26T01:00:17;13.60;;;7.05;;
82671;SDS011;72378;52.468;13.432;2024-02-26T01:05:11;13.10;;;6.50;;
82671;SDS011;72378;52.468;13.432;2024-02-26T01:07:38;12.05;;;7.15;;
82671;SDS011;72378;52.468;13.432;2024-02-26T01:10:08;13.00;;;7.10;;
82671;SDS011;72378;52.468;13.432;2024-02-26T01:12:35;13.25;;;6.90;;
82671;SDS011;72378;52.468;13.432;2024-02-26T01:17:28;12.93;;;6.60;;
82671;SDS011;72378;52.468;13.432;2024-02-26T01:19:55;12.50;;;6.60;;
82671;SDS011;72378;52.468;13.432;2024-02-26T01:22:21;12.20;;;6.57;;
82671;SDS011;72378;52.468;13.432;2024-02-26T01:24:48;11.77;;;6.82;;
82671;SDS011;72378;52.468;13.432;2024-02-26T01:27:15;12.85;;;6.97;;
82671;SDS011;72378;52.468;13.432;2024-02-26T01:29:42;12.20;;;6.55;;
82671;SDS011;72378;52.468;13.432;2024-02-26T01:34:35;12.85;;;6.50;;
82671;SDS011;72378;52.468;13.432;2024-02-26T01:37:02;20.98;;;9.38;;
82671;SDS011;72378;52.468;13.432;2024-02-26T01:39:29;12.30;;;6.30;;
82671;SDS011;72378;52.468;13.432;2024-02-26T01:41:55;11.18;;;5.93;;
82671;SDS011;72378;52.468;13.432;2024-02-26T01:44:23;11.90;;;6.35;;
82671;SDS011;72378;52.468;13.432;2024-02-26T01:46:49;12.57;;;6.60;;
82671;SDS011;72378;52.468;13.432;2024-02-26T01:49:15;10.93;;;6.38;;
82671;SDS011;72378;52.468;13.432;2024-02-26T01:51:42;10.57;;;5.72;;
82671;SDS011;72378;52.468;13.432;2024-02-26T01:54:09;10.80;;;5.78;;
82671;SDS011;72378;52.468;13.432;2024-02-26T01:59:04;10.32;;;5.47;;
82671;SDS011;72378;52.468;13.432;2024-02-26T02:01:32;10.27;;;5.35;;
82671;SDS011;72378;52.468;13.432;2024-02-26T02:04:00;12.20;;;5.88;;
82671;SDS011;72378;52.468;13.432;2024-02-26T02:06:27;11.70;;;5.80;;
82671;SDS011;72378;52.468;13.432;2024-02-26T02:11:20;10.88;;;4.95;;
82671;SDS011;72378;52.468;13.432;2024-02-26T02:13:47;10.27;;;5.43;;
82671;SDS011;72378;52.468;13.432;2024-02-26T02:16:13;10.55;;;5.35;;
82671;SDS011;72378;52.468;13.432;2024-02-26T02:18:41;11.23;;;5.47;;
82671;SDS011;72378;52.468;13.432;2024-02-26T02:21:09;11.38;;;5.13;;
82671;SDS011;72378;52.468;13.432;2024-02-26T02:23:35;10.00;;;4.97;;
82671;SDS011;72378;52.468;13.432;2024-02-26T02:26:01;9.05;;;4.30;;
82671;SDS011;72378;52.468;13.432;2024-02-26T02:28:28;9.82;;;4.68;;
82671;SDS011;72378;52.468;13.432;2024-02-26T02:30:54;8.27;;;4.43;;
82671;SDS011;72378;52.468;13.432;2024-02-26T02:33:22;9.73;;;4.60;;
82671;SDS011;72378;52.468;13.432;2024-02-26T02:35:50;10.23;;;4.63;;
82671;SDS011;72378;52.468;13.432;2024-02-26T02:38:20;8.93;;;4.47;;
82671;SDS011;72378;52.468;13.432;2024-02-26T02:40:46;8.65;;;4.57;;
82671;SDS011;72378;52.468;13.432;2024-02-26T02:43:13;8.95;;;4.13;;
82671;SDS011;72378;52.468;13.432;2024-02-26T02:45:39;9.30;;;4.85;;
82671;SDS011;72378;52.468;13.432;2024-02-26T02:48:05;9.95;;;4.80;;
82671;SDS011;72378;52.468;13.432;2024-02-26T02:50:32;8.95;;;4.57;;
82671;SDS011;72378;52.468;13.432;2024-02-26T02:52:58;9.88;;;4.97;;
82671;SDS011;72378;52.468;13.432;2024-02-26T02:55:26;9.38;;;4.80;;
82671;SDS011;72378;52.468;13.432;2024-02-26T02:57:53;10.57;;;5.10;;
82671;SDS011;72378;52.468;13.432;2024-02-26T03:00:19;12.07;;;5.28;;
82671;SDS011;72378;52.468;13.432;2024-02-26T03:02:47;9.20;;;4.47;;
82671;SDS011;72378;52.468;13.432;2024-02-26T03:05:14;9.00;;;4.55;;
82671;SDS011;72378;52.468;13.432;2024-02-26T03:07:40;8.73;;;4.57;;
82671;SDS011;72378;52.468;13.432;2024-02-26T03:10:07;8.70;;;4.30;;
82671;SDS011;72378;52.468;13.432;2024-02-26T03:12:35;10.98;;;5.72;;
82671;SDS011;72378;52.468;13.432;2024-02-26T03:15:01;10.25;;;4.65;;
82671;SDS011;72378;52.468;13.432;2024-02-26T03:17:29;8.88;;;4.47;;
82671;SDS011;72378;52.468;13.432;2024-02-26T03:19:55;11.95;;;4.93;;
82671;SDS011;72378;52.468;13.432;2024-02-26T03:22:22;9.05;;;4.43;;
82671;SDS011;72378;52.468;13.432;2024-02-26T03:24:48;9.00;;;4.70;;
82671;SDS011;72378;52.468;13.432;2024-02-26T03:27:14;10.85;;;5.03;;
82671;SDS011;72378;52.468;13.432;2024-02-26T03:29:42;8.90;;;5.10;;
82671;SDS011;72378;52.468;13.432;2024-02-26T03:32:08;8.80;;;4.78;;
82671;SDS011;72378;52.468;13.432;2024-02-26T03:34:35;9.98;;;4.45;;
82671;SDS011;72378;52.468;13.432;2024-02-26T03:37:04;9.38;;;4.43;;
82671;SDS011;72378;52.468;13.432;2024-02-26T03:39:30;8.77;;;4.43;;
82671;SDS011;72378;52.468;13.432;2024-02-26T03:41:56;8.63;;;4.40;;
82671;SDS011;72378;52.468;13.432;2024-02-26T03:44:23;9.32;;;4.60;;
82671;SDS011;72378;52.468;13.432;2024-02-26T03:46:50;8.75;;;4.60;;
82671;SDS011;72378;52.468;13.432;2024-02-26T03:49:17;9.60;;;5.18;;
82671;SDS011;72378;52.468;13.432;2024-02-26T03:51:43;9.75;;;5.00;;
82671;SDS011;72378;52.468;13.432;2024-02-26T03:54:09;11.43;;;5.80;;
82671;SDS011;72378;52.468;13.432;2024-02-26T03:56:36;10.25;;;4.97;;
82671;SDS011;72378;52.468;13.432;2024-02-26T03:59:02;10.63;;;5.40;;
82671;SDS011;72378;52.468;13.432;2024-02-26T04:01:28;10.38;;;5.10;;
82671;SDS011;72378;52.468;13.432;2024-02-26T04:03:56;11.30;;;5.28;;
82671;SDS011;72378;52.468;13.432;2024-02-26T04:06:22;9.35;;;4.43;;
82671;SDS011;72378;52.468;13.432;2024-02-26T04:08:48;10.05;;;4.88;;
82671;SDS011;72378;52.468;13.432;2024-02-26T04:11:15;11.40;;;5.60;;
82671;SDS011;72378;52.468;13.432;2024-02-26T04:13:43;11.85;;;5.68;;
82671;SDS011;72378;52.468;13.432;2024-02-26T04:16:10;12.07;;;5.53;;
82671;SDS011;72378;52.468;13.432;2024-02-26T04:18:37;10.63;;;5.50;;
82671;SDS011;72378;52.468;13.432;2024-02-26T04:21:05;10.38;;;5.22;;
82671;SDS011;72378;52.468;13.432;2024-02-26T04:23:32;9.70;;;5.38;;
82671;SDS011;72378;52.468;13.432;2024-02-26T04:25:58;11.98;;;5.90;;
82671;SDS011;72378;52.468;13.432;2024-02-26T04:28:25;11.02;;;5.57;;
82671;SDS011;72378;52.468;13.432;2024-02-26T04:30:53;13.15;;;5.50;;
82671;SDS011;72378;52.468;13.432;2024-02-26T04:33:20;11.15;;;5.80;;
82671;SDS011;72378;52.468;13.432;2024-02-26T04:35:46;12.90;;;6.53;;
82671;SDS011;72378;52.468;13.432;2024-02-26T04:38:14;11.85;;;5.50;;
82671;SDS011;72378;52.468;13.432;2024-02-26T04:40:40;11.45;;;5.60;;
82671;SDS011;72378;52.468;13.432;2024-02-26T04:43:07;11.45;;;5.47;;
82671;SDS011;72378;52.468;13.432;2024-02-26T04:45:33;11.43;;;5.15;;
82671;SDS011;72378;52.468;13.432;2024-02-26T04:47:59;13.82;;;6.00;;
82671;SDS011;72378;52.468;13.432;2024-02-26T04:50:26;11.20;;;5.65;;
82671;SDS011;72378;52.468;13.432;2024-02-26T04:52:52;11.32;;;5.95;;
82671;SDS011;72378;52.468;13.432;2024-02-26T04:55:20;12.90;;;5.60;;
82671;SDS011;72378;52.468;13.432;2024-02-26T04:57:46;12.20;;;5.60;;
82671;SDS011;72378;52.468;13.432;2024-02-26T05:00:13;12.05;;;7.03;;
82671;SDS011;72378;52.468;13.432;2024-02-26T05:02:40;13.00;;;6.45;;
82671;SDS011;72378;52.468;13.432;2024-02-26T05:05:06;10.63;;;6.07;;
82671;SDS011;72378;52.468;13.432;2024-02-26T05:07:34;12.48;;;6.43;;
82671;SDS011;72378;52.468;13.432;2024-02-26T05:10:05;11.20;;;5.60;;
82671;SDS011;72378;52.468;13.432;2024-02-26T05:15:00;11.75;;;6.13;;
82671;SDS011;72378;52.468;13.432;2024-02-26T05:17:27;15.43;;;6.57;;
82671;SDS011;72378;52.468;13.432;2024-02-26T05:19:54;15.10;;;6.55;;
82671;SDS011;72378;52.468;13.432;2024-02-26T05:22:20;13.18;;;6.65;;
82671;SDS011;72378;52.468;13.432;2024-02-26T05:24:47;13.07;;;6.10;;
82671;SDS011;72378;52.468;13.432;2024-02-26T05:27:13;14.25;;;6.50;;
82671;SDS011;72378;52.468;13.432;2024-02-26T05:29:41;14.75;;;6.90;;
82671;SDS011;72378;52.468;13.432;2024-02-26T05:32:07;16.13;;;6.85;;
82671;SDS011;72378;52.468;13.432;2024-02-26T05:34:33;14.45;;;7.65;;
82671;SDS011;72378;52.468;13.432;2024-02-26T05:37:00;14.00;;;7.10;;
82671;SDS011;72378;52.468;13.432;2024-02-26T05:39:26;14.60;;;7.72;;
82671;SDS011;72378;52.468;13.432;2024-02-26T05:41:52;14.93;;;8.15;;
82671;SDS011;72378;52.468;13.432;2024-02-26T05:44:18;20.85;;;8.88;;
82671;SDS011;72378;52.468;13.432;2024-02-26T05:46:46;14.95;;;7.18;;
82671;SDS011;72378;52.468;13.432;2024-02-26T05:49:12;13.15;;;7.43;;
82671;SDS011;72378;52.468;13.432;2024-02-26T05:51:39;18.33;;;7.82;;
82671;SDS011;72378;52.468;13.432;2024-02-26T05:54:05;15.10;;;8.25;;
82671;SDS011;72378;52.468;13.432;2024-02-26T05:56:33;19.15;;;8.13;;
82671;SDS011;72378;52.468;13.432;2024-02-26T05:59:00;15.40;;;7.85;;
82671;SDS011;72378;52.468;13.432;2024-02-26T06:01:26;14.55;;;7.70;;
82671;SDS011;72378;52.468;13.432;2024-02-26T06:03:55;16.40;;;8.20;;
82671;SDS011;72378;52.468;13.432;2024-02-26T06:06:22;16.45;;;7.97;;
82671;SDS011;72378;52.468;13.432;2024-02-26T06:08:48;20.27;;;8.13;;
82671;SDS011;72378;52.468;13.432;2024-02-26T06:11:15;16.08;;;8.27;;
82671;SDS011;72378;52.468;13.432;2024-02-26T06:13:41;14.82;;;7.35;;
82671;SDS011;72378;52.468;13.432;2024-02-26T06:16:07;17.88;;;8.38;;
82671;SDS011;72378;52.468;13.432;2024-02-26T06:18:34;18.00;;;8.82;;
82671;SDS011;72378;52.468;13.432;2024-02-26T06:21:01;16.48;;;8.02;;
82671;SDS011;72378;52.468;13.432;2024-02-26T06:23:28;15.35;;;8.73;;
82671;SDS011;72378;52.468;13.432;2024-02-26T06:25:54;18.70;;;8.82;;
82671;SDS011;72378;52.468;13.432;2024-02-26T06:28:21;19.40;;;8.90;;
82671;SDS011;72378;52.468;13.432;2024-02-26T06:30:47;16.27;;;8.15;;
82671;SDS011;72378;52.468;13.432;2024-02-26T06:33:15;14.65;;;7.88;;
82671;SDS011;72378;52.468;13.432;2024-02-26T06:35:41;17.85;;;8.27;;
82671;SDS011;72378;52.468;13.432;2024-02-26T06:38:10;17.52;;;8.10;;
82671;SDS011;72378;52.468;13.432;2024-02-26T06:40:38;13.80;;;7.60;;
82671;SDS011;72378;52.468;13.432;2024-02-26T06:43:04;15.27;;;7.82;;
82671;SDS011;72378;52.468;13.432;2024-02-26T06:45:31;15.68;;;7.68;;
82671;SDS011;72378;52.468;13.432;2024-02-26T06:47:57;15.23;;;8.00;;
82671;SDS011;72378;52.468;13.432;2024-02-26T06:50:24;12.68;;;7.60;;
82671;SDS011;72378;52.468;13.432;2024-02-26T06:52:50;14.30;;;7.05;;
82671;SDS011;72378;52.468;13.432;2024-02-26T06:55:18;15.45;;;7.68;;
82671;SDS011;72378;52.468;13.432;2024-02-26T06:57:44;13.30;;;7.25;;
82671;SDS011;72378;52.468;13.432;2024-02-26T07:00:11;15.18;;;7.93;;
82671;SDS011;72378;52.468;13.432;2024-02-26T07:02:40;15.40;;;6.70;;
82671;SDS011;72378;52.468;13.432;2024-02-26T07:05:06;15.63;;;6.97;;
82671;SDS011;72378;52.468;13.432;2024-02-26T07:07:33;13.40;;;6.50;;
82671;SDS011;72378;52.468;13.432;2024-02-26T07:09:59;18.25;;;9.65;;
82671;SDS011;72378;52.468;13.432;2024-02-26T07:12:29;17.75;;;8.40;;
82671;SDS011;72378;52.468;13.432;2024-02-26T07:14:56;12.95;;;7.07;;
82671;SDS011;72378;52.468;13.432;2024-02-26T07:17:23;21.15;;;11.30;;
82671;SDS011;72378;52.468;13.432;2024-02-26T07:19:49;15.38;;;7.65;;
82671;SDS011;72378;52.468;13.432;2024-02-26T07:22:15;14.07;;;8.30;;
82671;SDS011;72378;52.468;13.432;2024-02-26T07:24:41;14.38;;;7.35;;
82671;SDS011;72378;52.468;13.432;2024-02-26T07:27:08;16.75;;;8.02;;
82671;SDS011;72378;52.468;13.432;2024-02-26T07:29:35;13.80;;;7.53;;
82671;SDS011;72378;52.468;13.432;2024-02-26T07:32:02;14.23;;;7.53;;
82671;SDS011;72378;52.468;13.432;2024-02-26T07:34:28;13.65;;;7.07;;
82671;SDS011;72378;52.468;13.432;2024-02-26T07:36:55;13.68;;;7.65;;
82671;SDS011;72378;52.468;13.432;2024-02-26T07:39:21;20.50;;;11.63;;
82671;SDS011;72378;52.468;13.432;2024-02-26T07:41:48;12.77;;;7.30;;
82671;SDS011;72378;52.468;13.432;2024-02-26T07:44:16;20.05;;;8.65;;
82671;SDS011;72378;52.468;13.432;2024-02-26T07:46:44;14.60;;;7.45;;
82671;SDS011;72378;52.468;13.432;2024-02-26T07:49:10;15.50;;;8.48;;
82671;SDS011;72378;52.468;13.432;2024-02-26T07:51:37;17.58;;;9.63;;
82671;SDS011;72378;52.468;13.432;2024-02-26T07:54:03;15.50;;;8.63;;
82671;SDS011;72378;52.468;13.432;2024-02-26T07:56:29;12.85;;;7.47;;
82671;SDS011;72378;52.468;13.432;2024-02-26T07:58:55;15.30;;;9.38;;
82671;SDS011;72378;52.468;13.432;2024-02-26T08:01:22;16.90;;;7.93;;
82671;SDS011;72378;52.468;13.432;2024-02-26T08:03:52;15.75;;;7.95;;
82671;SDS011;72378;52.468;13.432;2024-02-26T08:06:18;14.43;;;8.40;;
82671;SDS011;72378;52.468;13.432;2024-02-26T08:08:45;14.88;;;8.48;;
82671;SDS011;72378;52.468;13.432;2024-02-26T08:11:11;16.30;;;8.73;;
82671;SDS011;72378;52.468;13.432;2024-02-26T08:13:37;21.23;;;8.98;;
82671;SDS011;72378;52.468;13.432;2024-02-26T08:16:04;15.90;;;9.70;;
82671;SDS011;72378;52.468;13.432;2024-02-26T08:18:31;15.32;;;9.05;;
82671;SDS011;72378;52.468;13.432;2024-02-26T08:20:58;15.27;;;9.40;;
82671;SDS011;72378;52.468;13.432;2024-02-26T08:23:25;18.38;;;8.90;;
82671;SDS011;72378;52.468;13.432;2024-02-26T08:25:51;16.05;;;8.45;;
82671;SDS011;72378;52.468;13.432;2024-02-26T08:28:17;17.52;;;9.45;;
82671;SDS011;72378;52.468;13.432;2024-02-26T08:33:11;13.85;;;8.50;;
82671;SDS011;72378;52.468;13.432;2024-02-26T08:35:38;17.70;;;8.25;;
82671;SDS011;72378;52.468;13.432;2024-02-26T08:38:06;15.45;;;9.25;;
82671;SDS011;72378;52.468;13.432;2024-02-26T08:40:32;15.75;;;9.30;;
82671;SDS011;72378;52.468;13.432;2024-02-26T08:42:58;17.55;;;9.10;;
82671;SDS011;72378;52.468;13.432;2024-02-26T08:45:25;16.13;;;8.48;;
82671;SDS011;72378;52.468;13.432;2024-02-26T08:47:52;14.93;;;9.02;;
82671;SDS011;72378;52.468;13.432;2024-02-26T08:50:18;17.75;;;10.85;;
82671;SDS011;72378;52.468;13.432;2024-02-26T08:52:44;15.70;;;9.60;;
82671;SDS011;72378;52.468;13.432;2024-02-26T08:55:16;15.60;;;9.35;;
82671;SDS011;72378;52.468;13.432;2024-02-26T08:57:43;20.75;;;11.25;;
82671;SDS011;72378;52.468;13.432;2024-02-26T09:00:09;15.55;;;9.30;;
82671;SDS011;72378;52.468;13.432;2024-02-26T09:02:37;15.90;;;10.43;;
82671;SDS011;72378;52.468;13.432;2024-02-26T09:07:30;16.15;;;9.73;;
82671;SDS011;72378;52.468;13.432;2024-02-26T09:09:57;13.23;;;8.10;;
82671;SDS011;72378;52.468;13.432;2024-02-26T09:12:24;14.15;;;9.50;;
82671;SDS011;72378;52.468;13.432;2024-02-26T09:14:50;16.67;;;10.32;;
82671;SDS011;72378;52.468;13.432;2024-02-26T09:17:17;16.75;;;9.18;;
82671;SDS011;72378;52.468;13.432;2024-02-26T09:19:43;16.73;;;10.30;;
82671;SDS011;72378;52.468;13.432;2024-02-26T09:22:09;17.52;;;11.07;;
82671;SDS011;72378;52.468;13.432;2024-02-26T09:27:02;22.23;;;13.15;;
82671;SDS011;72378;52.468;13.432;2024-02-26T09:29:30;14.52;;;9.05;;
82671;SDS011;72378;52.468;13.432;2024-02-26T09:31:56;16.67;;;9.98;;
82671;SDS011;72378;52.468;13.432;2024-02-26T09:34:23;15.95;;;9.50;;
82671;SDS011;72378;52.468;13.432;2024-02-26T09:36:49;16.83;;;9.32;;
82671;SDS011;72378;52.468;13.432;2024-02-26T09:39:16;17.23;;;9.95;;
82671;SDS011;72378;52.468;13.432;2024-02-26T09:41:46;16.88;;;9.45;;
82671;SDS011;72378;52.468;13.432;2024-02-26T09:46:42;12.75;;;8.15;;
82671;SDS011;72378;52.468;13.432;2024-02-26T09:49:09;13.82;;;8.27;;
82671;SDS011;72378;52.468;13.432;2024-02-26T09:51:36;15.02;;;8.93;;
82671;SDS011;72378;52.468;13.432;2024-02-26T09:54:04;13.48;;;8.68;;
82671;SDS011;72378;52.468;13.432;2024-02-26T09:56:35;14.43;;;8.48;;
82671;SDS011;72378;52.468;13.432;2024-02-26T09:59:02;13.27;;;8.02;;
82671;SDS011;72378;52.468;13.432;2024-02-26T10:01:34;16.13;;;9.25;;
82671;SDS011;72378;52.468;13.432;2024-02-26T10:04:02;13.95;;;7.82;;
82671;SDS011;72378;52.468;13.432;2024-02-26T10:06:30;13.10;;;7.85;;
82671;SDS011;72378;52.468;13.432;2024-02-26T10:08:56;13.80;;;7.70;;
82671;SDS011;72378;52.468;13.432;2024-02-26T10:11:23;17.52;;;8.88;;
82671;SDS011;72378;52.468;13.432;2024-02-26T10:13:50;14.82;;;8.32;;
82671;SDS011;72378;52.468;13.432;2024-02-26T10:16:16;14.45;;;8.25;;
82671;SDS011;72378;52.468;13.432;2024-02-26T10:18:46;14.32;;;8.50;;
82671;SDS011;72378;52.468;13.432;2024-02-26T10:21:18;13.18;;;8.13;;
82671;SDS011;72378;52.468;13.432;2024-02-26T10:23:45;18.10;;;9.65;;
82671;SDS011;72378;52.468;13.432;2024-02-26T10:26:13;12.63;;;7.60;;
82671;SDS011;72378;52.468;13.432;2024-02-26T10:28:41;12.35;;;7.65;;
82671;SDS011;72378;52.468;13.432;2024-02-26T10:31:08;11.10;;;7.50;;
82671;SDS011;72378;52.468;13.432;2024-02-26T10:33:35;12.18;;;7.40;;
82671;SDS011;72378;52.468;13.432;2024-02-26T10:36:02;15.20;;;8.20;;
82671;SDS011;72378;52.468;13.432;2024-02-26T10:38:30;12.90;;;7.63;;
82671;SDS011;72378;52.468;13.432;2024-02-26T10:40:58;14.13;;;7.35;;
82671;SDS011;72378;52.468;13.432;2024-02-26T10:45:51;10.77;;;6.40;;
82671;SDS011;72378;52.468;13.432;2024-02-26T10:48:18;13.45;;;7.95;;
82671;SDS011;72378;52.468;13.432;2024-02-26T10:50:45;11.35;;;6.68;;
82671;SDS011;72378;52.468;13.432;2024-02-26T10:53:13;12.48;;;7.13;;
82671;SDS011;72378;52.468;13.432;2024-02-26T10:55:44;13.05;;;7.90;;
82671;SDS011;72378;52.468;13.432;2024-02-26T10:58:14;12.10;;;7.32;;
82671;SDS011;72378;52.468;13.432;2024-02-26T11:00:43;11.98;;;7.07;;
82671;SDS011;72378;52.468;13.432;2024-02-26T11:03:09;14.15;;;7.05;;
82671;SDS011;72378;52.468;13.432;2024-02-26T11:05:37;11.05;;;6.40;;
82671;SDS011;72378;52.468;13.432;2024-02-26T11:08:06;12.82;;;6.75;;
82671;SDS011;72378;52.468;13.432;2024-02-26T11:10:33;9.73;;;5.72;;
82671;SDS011;72378;52.468;13.432;2024-02-26T11:13:01;11.80;;;6.55;;
82671;SDS011;72378;52.468;13.432;2024-02-26T11:15:28;11.35;;;6.15;;
82671;SDS011;72378;52.468;13.432;2024-02-26T11:17:57;12.18;;;7.20;;
82671;SDS011;72378;52.468;13.432;2024-02-26T11:20:24;11.85;;;7.25;;
82671;SDS011;72378;52.468;13.432;2024-02-26T11:22:53;12.10;;;6.50;;
82671;SDS011;72378;52.468;13.432;2024-02-26T11:25:19;8.88;;;5.53;;
82671;SDS011;72378;52.468;13.432;2024-02-26T11:27:46;9.32;;;5.93;;
82671;SDS011;72378;52.468;13.432;2024-02-26T11:30:16;13.45;;;8.45;;
82671;SDS011;72378;52.468;13.432;2024-02-26T11:32:44;11.25;;;5.90;;
82671;SDS011;72378;52.468;13.432;2024-02-26T11:35:11;10.82;;;6.43;;
82671;SDS011;72378;52.468;13.432;2024-02-26T11:37:40;13.40;;;7.35;;
82671;SDS011;72378;52.468;13.432;2024-02-26T11:40:09;12.15;;;6.97;;
82671;SDS011;72378;52.468;13.432;2024-02-26T11:42:42;12.00;;;6.90;;
82671;SDS011;72378;52.468;13.432;2024-02-26T11:48:22;13.10;;;8.70;;
82671;SDS011;72378;52.468;13.432;2024-02-26T11:50:51;10.38;;;6.32;;
82671;SDS011;72378;52.468;13.432;2024-02-26T11:53:25;11.25;;;6.47;;
82671;SDS011;72378;52.468;13.432;2024-02-26T11:58:39;9.63;;;6.13;;
82671;SDS011;72378;52.468;13.432;2024-02-26T12:01:05;13.55;;;7.40;;
82671;SDS011;72378;52.468;13.432;2024-02-26T12:05:59;11.65;;;6.53;;
82671;SDS011;72378;52.468;13.432;2024-02-26T12:08:26;11.98;;;6.70;;
82671;SDS011;72378;52.468;13.432;2024-02-26T12:10:53;19.98;;;6.85;;
82671;SDS011;72378;52.468;13.432;2024-02-26T12:13:20;11.10;;;5.88;;
82671;SDS011;72378;52.468;13.432;2024-02-26T12:15:56;11.10;;;5.90;;
82671;SDS011;72378;52.468;13.432;2024-02-26T12:18:24;12.13;;;6.07;;
82671;SDS011;72378;52.468;13.432;2024-02-26T12:23:25;10.77;;;6.15;;
82671;SDS011;72378;52.468;13.432;2024-02-26T12:25:53;12.63;;;7.07;;
82671;SDS011;72378;52.468;13.432;2024-02-26T12:28:20;12.05;;;6.30;;
82671;SDS011;72378;52.468;13.432;2024-02-26T12:30:46;12.07;;;6.20;;
82671;SDS011;72378;52.468;13.432;2024-02-26T12:33:13;11.93;;;6.30;;
82671;SDS011;72378;52.468;13.432;2024-02-26T12:35:39;8.52;;;4.72;;
82671;SDS011;72378;52.468;13.432;2024-02-26T12:40:33;8.63;;;4.60;;
82671;SDS011;72378;52.468;13.432;2024-02-26T12:43:00;10.88;;;5.85;;
82671;SDS011;72378;52.468;13.432;2024-02-26T12:45:27;9.48;;;4.63;;
82671;SDS011;72378;52.468;13.432;2024-02-26T12:47:54;8.68;;;4.68;;
82671;SDS011;72378;52.468;13.432;2024-02-26T12:50:21;8.25;;;4.25;;
82671;SDS011;72378;52.468;13.432;2024-02-26T12:52:49;8.35;;;4.32;;
82671;SDS011;72378;52.468;13.432;2024-02-26T12:55:18;8.75;;;4.95;;
82671;SDS011;72378;52.468;13.432;2024-02-26T12:57:46;10.23;;;5.50;;
82671;SDS011;72378;52.468;13.432;2024-02-26T13:00:15;10.00;;;5.60;;
82671;SDS011;72378;52.468;13.432;2024-02-26T13:02:44;7.45;;;4.03;;
82671;SDS011;72378;52.468;13.432;2024-02-26T13:05:11;8.68;;;3.70;;
82671;SDS011;72378;52.468;13.432;2024-02-26T13:07:42;8.25;;;4.50;;
82671;SDS011;72378;52.468;13.432;2024-02-26T13:10:09;11.05;;;6.35;;
82671;SDS011;72378;52.468;13.432;2024-02-26T13:12:41;9.30;;;4.57;;
82671;SDS011;72378;52.468;13.432;2024-02-26T13:15:09;8.15;;;3.88;;
82671;SDS011;72378;52.468;13.432;2024-02-26T13:17:40;7.10;;;2.95;;
82671;SDS011;72378;52.468;13.432;2024-02-26T13:20:07;8.27;;;4.10;;
82671;SDS011;72378;52.468;13.432;2024-02-26T13:22:35;13.75;;;5.93;;
82671;SDS011;72378;52.468;13.432;2024-02-26T13:27:28;7.15;;;2.88;;
82671;SDS011;72378;52.468;13.432;2024-02-26T13:30:03;6.68;;;3.00;;
82671;SDS011;72378;52.468;13.432;2024-02-26T13:32:32;7.40;;;3.35;;
82671;SDS011;72378;52.468;13.432;2024-02-26T13:35:04;8.30;;;4.65;;
82671;SDS011;72378;52.468;13.432;2024-02-26T13:39:57;10.73;;;6.18;;
82671;SDS011;72378;52.468;13.432;2024-02-26T13:42:23;10.85;;;5.88;;
82671;SDS011;72378;52.468;13.432;2024-02-26T13:44:50;10.38;;;5.32;;
82671;SDS011;72378;52.468;13.432;2024-02-26T13:47:17;12.32;;;6.00;;
82671;SDS011;72378;52.468;13.432;2024-02-26T13:49:43;9.50;;;4.90;;
82671;SDS011;72378;52.468;13.432;2024-02-26T13:52:10;10.38;;;5.03;;
82671;SDS011;72378;52.468;13.432;2024-02-26T13:54:37;10.48;;;6.07;;
82671;SDS011;72378;52.468;13.432;2024-02-26T13:57:04;11.30;;;4.57;;
82671;SDS011;72378;52.468;13.432;2024-02-26T13:59:30;8.85;;;4.60;;
82671;SDS011;72378;52.468;13.432;2024-02-26T14:01:56;11.77;;;5.38;;
82671;SDS011;72378;52.468;13.432;2024-02-26T14:04:24;12.18;;;5.38;;
82671;SDS011;72378;52.468;13.432;2024-02-26T14:06:50;13.43;;;6.75;;
82671;SDS011;72378;52.468;13.432;2024-02-26T14:09:17;13.23;;;6.43;;
82671;SDS011;72378;52.468;13.432;2024-02-26T14:11:44;12.13;;;4.78;;
82671;SDS011;72378;52.468;13.432;2024-02-26T14:14:11;10.98;;;5.10;;
82671;SDS011;72378;52.468;13.432;2024-02-26T14:16:37;9.95;;;4.90;;
82671;SDS011;72378;52.468;13.432;2024-02-26T14:19:03;11.05;;;5.50;;
82671;SDS011;72378;52.468;13.432;2024-02-26T14:21:31;9.95;;;5.50;;
82671;SDS011;72378;52.468;13.432;2024-02-26T14:23:57;12.07;;;6.05;;
82671;SDS011;72378;52.468;13.432;2024-02-26T14:26:24;16.00;;;6.30;;
82671;SDS011;72378;52.468;13.432;2024-02-26T14:28:50;11.07;;;5.88;;
82671;SDS011;72378;52.468;13.432;2024-02-26T14:31:17;12.80;;;5.40;;
82671;SDS011;72378;52.468;13.432;2024-02-26T14:33:43;10.50;;;5.47;;
82671;SDS011;72378;52.468;13.432;2024-02-26T14:36:10;12.93;;;6.65;;
82671;SDS011;72378;52.468;13.432;2024-02-26T14:38:38;10.25;;;4.80;;
82671;SDS011;72378;52.468;13.432;2024-02-26T14:41:04;16.80;;;8.05;;
82671;SDS011;72378;52.468;13.432;2024-02-26T14:43:30;10.90;;;5.20;;
82671;SDS011;72378;52.468;13.432;2024-02-26T14:45:58;14.70;;;8.10;;
82671;SDS011;72378;52.468;13.432;2024-02-26T14:50:51;12.50;;;6.05;;
82671;SDS011;72378;52.468;13.432;2024-02-26T14:53:17;12.85;;;5.63;;
82671;SDS011;72378;52.468;13.432;2024-02-26T14:58:11;11.15;;;5.55;;
82671;SDS011;72378;52.468;13.432;2024-02-26T15:00:38;11.15;;;5.10;;
82671;SDS011;72378;52.468;13.432;2024-02-26T15:03:05;11.50;;;5.20;;
82671;SDS011;72378;52.468;13.432;2024-02-26T15:05:32;13.20;;;7.15;;
82671;SDS011;72378;52.468;13.432;2024-02-26T15:10:25;10.27;;;5.25;;
82671;SDS011;72378;52.468;13.432;2024-02-26T15:12:54;13.15;;;6.68;;
82671;SDS011;72378;52.468;13.432;2024-02-26T15:15:24;10.88;;;6.25;;